This is the latest recevied weather packets stored in our database for station/object KC4MCQ-10. If no packets are shown the sender has not sent any weather packets the latest 10 day(s).
| Time | Temp. | Humidity | Pressure | Rain* | Wind** | Luminosity | Snow |
|---|---|---|---|---|---|---|---|
| 1787792375 | 23.89° C | 91% | 1017.2 hPa | 10.41 mm | 0.45 m/s, 154° | - | - |
| 1787791774 | 23.89° C | 91% | 1017.2 hPa | 10.41 mm | 0.89 m/s, 157° | - | - |
| 1787791162 | 23.89° C | 90% | 1017.2 hPa | 10.41 mm | 0.89 m/s, 211° | - | - |
| 1787790548 | 24.44° C | 90% | 1017.3 hPa | 10.41 mm | 0 m/s | - | - |
| 1787789936 | 23.89° C | 89% | 1017.3 hPa | 10.16 mm | 0 m/s | - | - |
| 1787789329 | 24.44° C | 89% | 1016.9 hPa | 9.65 mm | 1.34 m/s, 189° | - | - |
| 1787788728 | 24.44° C | 89% | 1016.8 hPa | 4.06 mm | 2.24 m/s, 121° | - | - |
| 1787788126 | 25° C | 89% | 1016.4 hPa | 4.06 mm | 1.34 m/s, 177° | - | - |
| 1787787525 | 25° C | 89% | 1016.3 hPa | 4.06 mm | 1.34 m/s, 144° | - | - |
| 1787786924 | 25° C | 89% | 1016 hPa | 4.06 mm | 1.79 m/s, 185° | - | - |
| 1787786302 | 25.56° C | 89% | 1016.1 hPa | 4.06 mm | 2.24 m/s, 145° | - | - |
| 1787785685 | 25.56° C | 88% | 1016.1 hPa | 4.06 mm | 1.79 m/s, 152° | - | - |
| 1787783847 | 27.78° C | 85% | 1015.3 hPa | 1.27 mm | 0.45 m/s, 163° | - | - |
| 1787782019 | 28.33° C | 82% | 1015.2 hPa | 1.27 mm | 2.68 m/s, 163° | - | - |
| 1787781417 | 29.44° C | 81% | 1014.9 hPa | 1.27 mm | 2.24 m/s, 153° | - | - |
| 1787780816 | 30° C | 77% | 1014.9 hPa | 1.27 mm | 1.34 m/s, 150° | - | - |
| 1787780213 | 30° C | 77% | 1014.9 hPa | 1.27 mm | 3.13 m/s, 154° | - | - |
| 1787779612 | 30° C | 77% | 1014.9 hPa | 1.27 mm | 2.24 m/s, 147° | - | - |
| 1787779009 | 30.56° C | 75% | 1014.9 hPa | 1.27 mm | 3.13 m/s, 139° | - | - |
| 1787778408 | 31.11° C | 73% | 1014.7 hPa | 1.27 mm | 0.89 m/s, 126° | - | - |
| 1787777808 | 30.56° C | 74% | 1014.9 hPa | 1.27 mm | 2.24 m/s, 121° | - | - |
| 1787777206 | 30° C | 78% | 1015.1 hPa | 1.27 mm | 0 m/s | - | - |
| 1787776605 | 28.89° C | 80% | 1015.2 hPa | 1.27 mm | 1.79 m/s, 99° | - | - |
| 1787776003 | 28.33° C | 81% | 1015.4 hPa | 1.27 mm | 0.45 m/s, 87° | - | - |
| 1787775401 | 28.33° C | 83% | 1015.4 hPa | 1.27 mm | 0.45 m/s, 93° | - | - |
* Rain latest 24 hours (hover to see other rain measurements)
** Current wind speed in m/s (hover to see current wind gust speed)